McLean, Nebraska
Current Conditions -  °F | °C
As of 7:55 AM on Monday 24 Nov 2014 (Local Time) from KLCG Reporting Station
Overcast Overcast  
Wind Chill: -12°   Ceiling: 2000
Heat Index: -4°   Visibility: 10mi
Dew Point: -8°   Wind: 21mph
Humidity: 75%   Direction: 330°NNW
Pressure: 29.66"   Gusts: 26mph
Location:  42.39°N, 97.47°W
Report Text: KLCG 241355Z AUTO 33018G23KT 10SM OVC020 M04/M08 A2966 RMK AO2 T10381077
Loading
Personal Weather Stations






























Interactive Weather Map New forecast layout! Learn more

10-Day Weather Forecast

Advertisements
Track Severe Weather on mobile